sensor_id;sensor_type;location;lat;lon;timestamp;P1;durP1;ratioP1;P2;durP2;ratioP2
73382;SDS011;61600;48.126;11.542;2024-02-14T00:02:22;4.35;;;1.40;;
73382;SDS011;61600;48.126;11.542;2024-02-14T00:04:52;3.83;;;1.25;;
73382;SDS011;61600;48.126;11.542;2024-02-14T00:09:44;5.53;;;1.20;;
73382;SDS011;61600;48.126;11.542;2024-02-14T00:12:09;2.05;;;1.20;;
73382;SDS011;61600;48.126;11.542;2024-02-14T00:14:37;4.05;;;1.20;;
73382;SDS011;61600;48.126;11.542;2024-02-14T00:17:03;4.75;;;1.42;;
73382;SDS011;61600;48.126;11.542;2024-02-14T00:19:30;3.50;;;1.48;;
73382;SDS011;61600;48.126;11.542;2024-02-14T00:21:56;3.80;;;1.02;;
73382;SDS011;61600;48.126;11.542;2024-02-14T00:24:25;3.78;;;1.42;;
73382;SDS011;61600;48.126;11.542;2024-02-14T00:26:53;4.55;;;1.35;;
73382;SDS011;61600;48.126;11.542;2024-02-14T00:29:19;3.75;;;1.42;;
73382;SDS011;61600;48.126;11.542;2024-02-14T00:31:46;4.60;;;1.33;;
73382;SDS011;61600;48.126;11.542;2024-02-14T00:34:12;5.00;;;1.40;;
73382;SDS011;61600;48.126;11.542;2024-02-14T00:36:37;3.20;;;1.23;;
73382;SDS011;61600;48.126;11.542;2024-02-14T00:39:03;2.85;;;1.20;;
73382;SDS011;61600;48.126;11.542;2024-02-14T00:41:31;2.47;;;1.10;;
73382;SDS011;61600;48.126;11.542;2024-02-14T00:43:57;2.33;;;1.17;;
73382;SDS011;61600;48.126;11.542;2024-02-14T00:46:24;4.65;;;1.10;;
73382;SDS011;61600;48.126;11.542;2024-02-14T00:48:50;4.03;;;1.05;;
73382;SDS011;61600;48.126;11.542;2024-02-14T00:51:15;2.67;;;1.20;;
73382;SDS011;61600;48.126;11.542;2024-02-14T00:53:43;3.85;;;1.27;;
73382;SDS011;61600;48.126;11.542;2024-02-14T00:56:11;1.42;;;0.82;;
73382;SDS011;61600;48.126;11.542;2024-02-14T00:58:36;2.38;;;1.00;;
73382;SDS011;61600;48.126;11.542;2024-02-14T01:01:04;2.13;;;1.00;;
73382;SDS011;61600;48.126;11.542;2024-02-14T01:03:31;5.25;;;1.60;;
73382;SDS011;61600;48.126;11.542;2024-02-14T01:05:57;4.63;;;1.10;;
73382;SDS011;61600;48.126;11.542;2024-02-14T01:08:22;4.85;;;1.10;;
73382;SDS011;61600;48.126;11.542;2024-02-14T01:10:48;3.45;;;0.93;;
73382;SDS011;61600;48.126;11.542;2024-02-14T01:13:17;2.67;;;1.00;;
73382;SDS011;61600;48.126;11.542;2024-02-14T01:15:43;3.30;;;1.20;;
73382;SDS011;61600;48.126;11.542;2024-02-14T01:18:10;6.65;;;1.60;;
73382;SDS011;61600;48.126;11.542;2024-02-14T01:20:36;3.13;;;1.38;;
73382;SDS011;61600;48.126;11.542;2024-02-14T01:23:03;1.95;;;1.00;;
73382;SDS011;61600;48.126;11.542;2024-02-14T01:25:28;3.25;;;1.27;;
73382;SDS011;61600;48.126;11.542;2024-02-14T01:27:54;2.00;;;0.95;;
73382;SDS011;61600;48.126;11.542;2024-02-14T01:30:20;2.35;;;0.95;;
73382;SDS011;61600;48.126;11.542;2024-02-14T01:32:48;1.90;;;1.00;;
73382;SDS011;61600;48.126;11.542;2024-02-14T01:35:16;1.60;;;0.80;;
73382;SDS011;61600;48.126;11.542;2024-02-14T01:37:42;2.17;;;1.10;;
73382;SDS011;61600;48.126;11.542;2024-02-14T01:40:10;2.92;;;1.20;;
73382;SDS011;61600;48.126;11.542;2024-02-14T01:42:36;3.65;;;0.98;;
73382;SDS011;61600;48.126;11.542;2024-02-14T01:45:02;2.63;;;1.02;;
73382;SDS011;61600;48.126;11.542;2024-02-14T01:47:28;2.45;;;1.08;;
73382;SDS011;61600;48.126;11.542;2024-02-14T01:49:54;2.97;;;1.15;;
73382;SDS011;61600;48.126;11.542;2024-02-14T01:52:20;1.92;;;0.98;;
73382;SDS011;61600;48.126;11.542;2024-02-14T01:54:47;3.22;;;1.30;;
73382;SDS011;61600;48.126;11.542;2024-02-14T01:57:13;2.35;;;1.15;;
73382;SDS011;61600;48.126;11.542;2024-02-14T01:59:40;3.35;;;1.30;;
73382;SDS011;61600;48.126;11.542;2024-02-14T02:02:05;2.42;;;1.05;;
73382;SDS011;61600;48.126;11.542;2024-02-14T02:04:34;3.15;;;1.33;;
73382;SDS011;61600;48.126;11.542;2024-02-14T02:07:00;2.05;;;1.02;;
73382;SDS011;61600;48.126;11.542;2024-02-14T02:09:26;4.82;;;1.20;;
73382;SDS011;61600;48.126;11.542;2024-02-14T02:11:52;3.58;;;0.98;;
73382;SDS011;61600;48.126;11.542;2024-02-14T02:14:25;3.03;;;1.10;;
73382;SDS011;61600;48.126;11.542;2024-02-14T02:16:51;2.35;;;0.77;;
73382;SDS011;61600;48.126;11.542;2024-02-14T02:19:17;3.38;;;1.00;;
73382;SDS011;61600;48.126;11.542;2024-02-14T02:21:43;2.05;;;1.00;;
73382;SDS011;61600;48.126;11.542;2024-02-14T02:24:11;3.53;;;1.30;;
73382;SDS011;61600;48.126;11.542;2024-02-14T02:26:37;2.92;;;1.23;;
73382;SDS011;61600;48.126;11.542;2024-02-14T02:29:03;2.78;;;1.02;;
73382;SDS011;61600;48.126;11.542;2024-02-14T02:31:30;1.92;;;0.82;;
73382;SDS011;61600;48.126;11.542;2024-02-14T02:33:56;2.05;;;0.93;;
73382;SDS011;61600;48.126;11.542;2024-02-14T02:36:23;1.63;;;0.77;;
73382;SDS011;61600;48.126;11.542;2024-02-14T02:38:49;1.70;;;0.90;;
73382;SDS011;61600;48.126;11.542;2024-02-14T02:41:15;1.40;;;0.95;;
73382;SDS011;61600;48.126;11.542;2024-02-14T02:43:41;3.45;;;1.00;;
73382;SDS011;61600;48.126;11.542;2024-02-14T02:46:10;3.22;;;0.90;;
73382;SDS011;61600;48.126;11.542;2024-02-14T02:48:36;1.45;;;0.90;;
73382;SDS011;61600;48.126;11.542;2024-02-14T02:51:01;1.33;;;0.82;;
73382;SDS011;61600;48.126;11.542;2024-02-14T02:53:27;4.40;;;0.98;;
73382;SDS011;61600;48.126;11.542;2024-02-14T02:55:52;3.42;;;1.00;;
73382;SDS011;61600;48.126;11.542;2024-02-14T02:58:19;2.08;;;0.93;;
73382;SDS011;61600;48.126;11.542;2024-02-14T03:00:46;3.33;;;0.90;;
73382;SDS011;61600;48.126;11.542;2024-02-14T03:03:14;3.40;;;0.93;;
73382;SDS011;61600;48.126;11.542;2024-02-14T03:05:41;4.30;;;0.90;;
73382;SDS011;61600;48.126;11.542;2024-02-14T03:08:10;4.93;;;1.20;;
73382;SDS011;61600;48.126;11.542;2024-02-14T03:10:41;3.63;;;1.08;;
73382;SDS011;61600;48.126;11.542;2024-02-14T03:13:07;4.43;;;1.02;;
73382;SDS011;61600;48.126;11.542;2024-02-14T03:15:37;4.05;;;1.13;;
73382;SDS011;61600;48.126;11.542;2024-02-14T03:18:03;2.70;;;1.08;;
73382;SDS011;61600;48.126;11.542;2024-02-14T03:20:37;2.70;;;1.10;;
73382;SDS011;61600;48.126;11.542;2024-02-14T03:23:03;3.15;;;1.60;;
73382;SDS011;61600;48.126;11.542;2024-02-14T03:25:29;3.40;;;1.10;;
73382;SDS011;61600;48.126;11.542;2024-02-14T03:27:54;5.53;;;1.02;;
73382;SDS011;61600;48.126;11.542;2024-02-14T03:32:51;2.30;;;0.98;;
73382;SDS011;61600;48.126;11.542;2024-02-14T03:35:17;3.10;;;1.00;;
73382;SDS011;61600;48.126;11.542;2024-02-14T03:37:45;2.78;;;0.90;;
73382;SDS011;61600;48.126;11.542;2024-02-14T03:40:13;3.00;;;1.08;;
73382;SDS011;61600;48.126;11.542;2024-02-14T03:42:39;4.22;;;0.98;;
73382;SDS011;61600;48.126;11.542;2024-02-14T03:45:05;1.85;;;0.85;;
73382;SDS011;61600;48.126;11.542;2024-02-14T03:47:34;2.70;;;0.77;;
73382;SDS011;61600;48.126;11.542;2024-02-14T03:50:00;1.88;;;0.90;;
73382;SDS011;61600;48.126;11.542;2024-02-14T03:52:27;2.92;;;1.02;;
73382;SDS011;61600;48.126;11.542;2024-02-14T03:54:55;2.72;;;1.00;;
73382;SDS011;61600;48.126;11.542;2024-02-14T03:57:20;2.58;;;1.00;;
73382;SDS011;61600;48.126;11.542;2024-02-14T03:59:48;1.85;;;0.88;;
73382;SDS011;61600;48.126;11.542;2024-02-14T04:02:14;3.53;;;1.45;;
73382;SDS011;61600;48.126;11.542;2024-02-14T04:04:43;3.58;;;0.90;;
73382;SDS011;61600;48.126;11.542;2024-02-14T04:07:09;2.45;;;1.00;;
73382;SDS011;61600;48.126;11.542;2024-02-14T04:09:34;2.20;;;0.82;;
73382;SDS011;61600;48.126;11.542;2024-02-14T04:12:01;2.45;;;1.05;;
73382;SDS011;61600;48.126;11.542;2024-02-14T04:14:26;3.20;;;1.10;;
73382;SDS011;61600;48.126;11.542;2024-02-14T04:16:52;2.85;;;1.10;;
73382;SDS011;61600;48.126;11.542;2024-02-14T04:19:17;2.33;;;1.00;;
73382;SDS011;61600;48.126;11.542;2024-02-14T04:21:43;2.38;;;1.00;;
73382;SDS011;61600;48.126;11.542;2024-02-14T04:24:09;2.80;;;0.90;;
73382;SDS011;61600;48.126;11.542;2024-02-14T04:26:35;2.03;;;1.17;;
73382;SDS011;61600;48.126;11.542;2024-02-14T04:29:01;1.75;;;0.90;;
73382;SDS011;61600;48.126;11.542;2024-02-14T04:31:27;2.38;;;1.00;;
73382;SDS011;61600;48.126;11.542;2024-02-14T04:33:55;2.55;;;1.10;;
73382;SDS011;61600;48.126;11.542;2024-02-14T04:36:21;4.65;;;1.10;;
73382;SDS011;61600;48.126;11.542;2024-02-14T04:38:50;4.43;;;1.15;;
73382;SDS011;61600;48.126;11.542;2024-02-14T04:41:16;1.77;;;1.02;;
73382;SDS011;61600;48.126;11.542;2024-02-14T04:43:42;1.73;;;0.90;;
73382;SDS011;61600;48.126;11.542;2024-02-14T04:46:08;2.13;;;0.80;;
73382;SDS011;61600;48.126;11.542;2024-02-14T04:48:34;2.03;;;1.10;;
73382;SDS011;61600;48.126;11.542;2024-02-14T04:51:01;5.32;;;1.30;;
73382;SDS011;61600;48.126;11.542;2024-02-14T04:53:27;3.00;;;1.20;;
73382;SDS011;61600;48.126;11.542;2024-02-14T04:55:53;3.65;;;1.02;;
73382;SDS011;61600;48.126;11.542;2024-02-14T04:58:19;4.05;;;1.25;;
73382;SDS011;61600;48.126;11.542;2024-02-14T05:00:45;2.67;;;0.98;;
73382;SDS011;61600;48.126;11.542;2024-02-14T05:03:10;4.22;;;1.10;;
73382;SDS011;61600;48.126;11.542;2024-02-14T05:05:36;5.72;;;1.05;;
73382;SDS011;61600;48.126;11.542;2024-02-14T05:08:02;2.00;;;1.05;;
73382;SDS011;61600;48.126;11.542;2024-02-14T05:10:28;3.20;;;1.10;;
73382;SDS011;61600;48.126;11.542;2024-02-14T05:12:54;2.05;;;1.00;;
73382;SDS011;61600;48.126;11.542;2024-02-14T05:15:20;3.38;;;1.40;;
73382;SDS011;61600;48.126;11.542;2024-02-14T05:17:46;2.05;;;0.73;;
73382;SDS011;61600;48.126;11.542;2024-02-14T05:20:13;2.72;;;1.10;;
73382;SDS011;61600;48.126;11.542;2024-02-14T05:22:39;4.15;;;1.30;;
73382;SDS011;61600;48.126;11.542;2024-02-14T05:25:06;3.65;;;1.38;;
73382;SDS011;61600;48.126;11.542;2024-02-14T05:27:40;3.38;;;1.27;;
73382;SDS011;61600;48.126;11.542;2024-02-14T05:30:12;2.83;;;1.27;;
73382;SDS011;61600;48.126;11.542;2024-02-14T05:32:41;2.13;;;1.15;;
73382;SDS011;61600;48.126;11.542;2024-02-14T05:35:10;2.85;;;1.52;;
73382;SDS011;61600;48.126;11.542;2024-02-14T05:37:37;4.22;;;1.50;;
73382;SDS011;61600;48.126;11.542;2024-02-14T05:40:04;3.17;;;1.23;;
73382;SDS011;61600;48.126;11.542;2024-02-14T05:42:32;3.75;;;1.30;;
73382;SDS011;61600;48.126;11.542;2024-02-14T05:44:59;5.55;;;1.00;;
73382;SDS011;61600;48.126;11.542;2024-02-14T05:47:25;1.65;;;0.90;;
73382;SDS011;61600;48.126;11.542;2024-02-14T05:49:51;9.10;;;1.42;;
73382;SDS011;61600;48.126;11.542;2024-02-14T05:52:17;2.58;;;1.15;;
73382;SDS011;61600;48.126;11.542;2024-02-14T05:54:44;2.50;;;1.00;;
73382;SDS011;61600;48.126;11.542;2024-02-14T05:57:09;2.75;;;0.93;;
73382;SDS011;61600;48.126;11.542;2024-02-14T05:59:35;4.03;;;1.48;;
73382;SDS011;61600;48.126;11.542;2024-02-14T06:02:01;7.35;;;1.20;;
73382;SDS011;61600;48.126;11.542;2024-02-14T06:04:28;3.42;;;1.13;;
73382;SDS011;61600;48.126;11.542;2024-02-14T06:06:56;4.05;;;1.17;;
73382;SDS011;61600;48.126;11.542;2024-02-14T06:09:22;1.92;;;1.00;;
73382;SDS011;61600;48.126;11.542;2024-02-14T06:11:47;5.70;;;0.82;;
73382;SDS011;61600;48.126;11.542;2024-02-14T06:14:13;2.58;;;0.98;;
73382;SDS011;61600;48.126;11.542;2024-02-14T06:16:40;1.70;;;0.75;;
73382;SDS011;61600;48.126;11.542;2024-02-14T06:19:06;2.33;;;1.10;;
73382;SDS011;61600;48.126;11.542;2024-02-14T06:21:32;1.20;;;0.70;;
73382;SDS011;61600;48.126;11.542;2024-02-14T06:23:58;3.47;;;0.88;;
73382;SDS011;61600;48.126;11.542;2024-02-14T06:26:25;2.95;;;1.00;;
73382;SDS011;61600;48.126;11.542;2024-02-14T06:28:50;2.53;;;1.10;;
73382;SDS011;61600;48.126;11.542;2024-02-14T06:31:20;1.35;;;0.75;;
73382;SDS011;61600;48.126;11.542;2024-02-14T06:33:47;1.98;;;1.08;;
73382;SDS011;61600;48.126;11.542;2024-02-14T06:36:13;2.53;;;0.90;;
73382;SDS011;61600;48.126;11.542;2024-02-14T06:38:39;6.25;;;1.10;;
73382;SDS011;61600;48.126;11.542;2024-02-14T06:41:05;2.47;;;1.20;;
73382;SDS011;61600;48.126;11.542;2024-02-14T06:43:34;4.13;;;1.10;;
73382;SDS011;61600;48.126;11.542;2024-02-14T06:46:03;2.75;;;0.95;;
73382;SDS011;61600;48.126;11.542;2024-02-14T06:48:30;3.20;;;0.90;;
73382;SDS011;61600;48.126;11.542;2024-02-14T06:50:55;4.38;;;1.00;;
73382;SDS011;61600;48.126;11.542;2024-02-14T06:53:22;2.80;;;0.82;;
73382;SDS011;61600;48.126;11.542;2024-02-14T06:55:48;1.75;;;0.80;;
73382;SDS011;61600;48.126;11.542;2024-02-14T06:58:14;2.53;;;0.90;;
73382;SDS011;61600;48.126;11.542;2024-02-14T07:00:40;2.40;;;1.10;;
73382;SDS011;61600;48.126;11.542;2024-02-14T07:03:05;1.40;;;0.85;;
73382;SDS011;61600;48.126;11.542;2024-02-14T07:05:31;4.95;;;0.90;;
73382;SDS011;61600;48.126;11.542;2024-02-14T07:07:57;3.42;;;1.13;;
73382;SDS011;61600;48.126;11.542;2024-02-14T07:10:22;3.22;;;1.10;;
73382;SDS011;61600;48.126;11.542;2024-02-14T07:12:48;2.47;;;1.30;;
73382;SDS011;61600;48.126;11.542;2024-02-14T07:15:13;4.68;;;1.10;;
73382;SDS011;61600;48.126;11.542;2024-02-14T07:17:40;3.08;;;1.40;;
73382;SDS011;61600;48.126;11.542;2024-02-14T07:20:07;4.00;;;1.50;;
73382;SDS011;61600;48.126;11.542;2024-02-14T07:22:34;4.50;;;2.08;;
73382;SDS011;61600;48.126;11.542;2024-02-14T07:25:00;5.00;;;1.55;;
73382;SDS011;61600;48.126;11.542;2024-02-14T07:27:26;4.43;;;1.67;;
73382;SDS011;61600;48.126;11.542;2024-02-14T07:29:52;3.92;;;1.60;;
73382;SDS011;61600;48.126;11.542;2024-02-14T07:32:18;5.13;;;1.40;;
73382;SDS011;61600;48.126;11.542;2024-02-14T07:34:43;1.85;;;0.93;;
73382;SDS011;61600;48.126;11.542;2024-02-14T07:37:09;5.28;;;1.38;;
73382;SDS011;61600;48.126;11.542;2024-02-14T07:39:35;3.38;;;1.25;;
73382;SDS011;61600;48.126;11.542;2024-02-14T07:42:01;4.38;;;1.08;;
73382;SDS011;61600;48.126;11.542;2024-02-14T07:44:28;4.10;;;1.20;;
73382;SDS011;61600;48.126;11.542;2024-02-14T07:46:54;3.08;;;1.20;;
73382;SDS011;61600;48.126;11.542;2024-02-14T07:49:21;3.45;;;1.13;;
73382;SDS011;61600;48.126;11.542;2024-02-14T07:51:46;3.28;;;1.17;;
73382;SDS011;61600;48.126;11.542;2024-02-14T07:54:13;3.88;;;1.23;;
73382;SDS011;61600;48.126;11.542;2024-02-14T07:56:39;4.68;;;1.00;;
73382;SDS011;61600;48.126;11.542;2024-02-14T07:59:04;2.50;;;1.00;;
73382;SDS011;61600;48.126;11.542;2024-02-14T08:01:30;2.67;;;1.30;;
73382;SDS011;61600;48.126;11.542;2024-02-14T08:03:57;3.15;;;1.13;;
73382;SDS011;61600;48.126;11.542;2024-02-14T08:06:23;2.47;;;0.95;;
73382;SDS011;61600;48.126;11.542;2024-02-14T08:08:49;5.53;;;1.23;;
73382;SDS011;61600;48.126;11.542;2024-02-14T08:11:19;3.63;;;0.88;;
73382;SDS011;61600;48.126;11.542;2024-02-14T08:13:45;4.07;;;1.00;;
73382;SDS011;61600;48.126;11.542;2024-02-14T08:16:11;4.43;;;1.10;;
73382;SDS011;61600;48.126;11.542;2024-02-14T08:18:37;2.25;;;1.02;;
73382;SDS011;61600;48.126;11.542;2024-02-14T08:21:05;3.45;;;1.20;;
73382;SDS011;61600;48.126;11.542;2024-02-14T08:23:31;6.95;;;1.05;;
73382;SDS011;61600;48.126;11.542;2024-02-14T08:25:57;1.90;;;1.10;;
73382;SDS011;61600;48.126;11.542;2024-02-14T08:28:23;1.95;;;0.70;;
73382;SDS011;61600;48.126;11.542;2024-02-14T08:30:48;2.50;;;0.88;;
73382;SDS011;61600;48.126;11.542;2024-02-14T08:33:14;2.20;;;0.75;;
73382;SDS011;61600;48.126;11.542;2024-02-14T08:35:40;2.63;;;0.77;;
73382;SDS011;61600;48.126;11.542;2024-02-14T08:38:06;1.52;;;0.80;;
73382;SDS011;61600;48.126;11.542;2024-02-14T08:40:34;2.28;;;1.08;;
73382;SDS011;61600;48.126;11.542;2024-02-14T08:43:01;4.45;;;1.65;;
73382;SDS011;61600;48.126;11.542;2024-02-14T08:45:29;2.08;;;0.90;;
73382;SDS011;61600;48.126;11.542;2024-02-14T08:50:20;2.00;;;0.90;;
73382;SDS011;61600;48.126;11.542;2024-02-14T08:52:46;5.63;;;0.77;;
73382;SDS011;61600;48.126;11.542;2024-02-14T08:55:13;2.75;;;1.15;;
73382;SDS011;61600;48.126;11.542;2024-02-14T08:57:43;5.93;;;1.52;;
73382;SDS011;61600;48.126;11.542;2024-02-14T09:00:10;5.68;;;1.05;;
73382;SDS011;61600;48.126;11.542;2024-02-14T09:02:37;4.40;;;1.17;;
73382;SDS011;61600;48.126;11.542;2024-02-14T09:05:03;4.57;;;1.38;;
73382;SDS011;61600;48.126;11.542;2024-02-14T09:07:31;4.22;;;1.17;;
73382;SDS011;61600;48.126;11.542;2024-02-14T09:09:59;2.83;;;1.10;;
73382;SDS011;61600;48.126;11.542;2024-02-14T09:12:26;2.53;;;1.17;;
73382;SDS011;61600;48.126;11.542;2024-02-14T09:14:52;1.80;;;0.85;;
73382;SDS011;61600;48.126;11.542;2024-02-14T09:17:18;1.73;;;0.80;;
73382;SDS011;61600;48.126;11.542;2024-02-14T09:19:44;2.15;;;0.75;;
73382;SDS011;61600;48.126;11.542;2024-02-14T09:22:09;1.40;;;0.57;;
73382;SDS011;61600;48.126;11.542;2024-02-14T09:24:35;2.60;;;0.90;;
73382;SDS011;61600;48.126;11.542;2024-02-14T09:27:00;3.08;;;0.80;;
73382;SDS011;61600;48.126;11.542;2024-02-14T09:34:20;2.78;;;1.20;;
73382;SDS011;61600;48.126;11.542;2024-02-14T09:36:47;1.92;;;0.88;;
73382;SDS011;61600;48.126;11.542;2024-02-14T09:39:14;2.15;;;0.95;;
73382;SDS011;61600;48.126;11.542;2024-02-14T09:41:42;2.53;;;0.98;;
73382;SDS011;61600;48.126;11.542;2024-02-14T09:44:09;5.75;;;0.90;;
73382;SDS011;61600;48.126;11.542;2024-02-14T09:46:38;3.70;;;0.93;;
73382;SDS011;61600;48.126;11.542;2024-02-14T09:49:04;1.30;;;0.60;;
73382;SDS011;61600;48.126;11.542;2024-02-14T09:51:31;2.78;;;0.80;;
73382;SDS011;61600;48.126;11.542;2024-02-14T09:53:57;1.85;;;0.93;;
73382;SDS011;61600;48.126;11.542;2024-02-14T09:56:25;1.75;;;0.75;;
73382;SDS011;61600;48.126;11.542;2024-02-14T09:58:53;1.85;;;0.82;;
73382;SDS011;61600;48.126;11.542;2024-02-14T10:01:22;0.90;;;0.60;;
73382;SDS011;61600;48.126;11.542;2024-02-14T10:06:15;2.58;;;0.70;;
73382;SDS011;61600;48.126;11.542;2024-02-14T10:08:42;1.35;;;0.43;;
73382;SDS011;61600;48.126;11.542;2024-02-14T10:11:08;3.28;;;0.75;;
73382;SDS011;61600;48.126;11.542;2024-02-14T10:13:33;2.35;;;0.70;;
73382;SDS011;61600;48.126;11.542;2024-02-14T10:15:59;1.50;;;0.80;;
73382;SDS011;61600;48.126;11.542;2024-02-14T10:18:26;1.58;;;0.60;;
73382;SDS011;61600;48.126;11.542;2024-02-14T10:20:52;1.40;;;0.82;;
73382;SDS011;61600;48.126;11.542;2024-02-14T10:23:21;1.50;;;0.60;;
73382;SDS011;61600;48.126;11.542;2024-02-14T10:25:52;1.35;;;0.60;;
73382;SDS011;61600;48.126;11.542;2024-02-14T10:28:18;2.78;;;0.68;;
73382;SDS011;61600;48.126;11.542;2024-02-14T10:30:48;2.72;;;0.80;;
73382;SDS011;61600;48.126;11.542;2024-02-14T10:33:17;2.30;;;0.63;;
73382;SDS011;61600;48.126;11.542;2024-02-14T10:35:44;2.05;;;0.80;;
73382;SDS011;61600;48.126;11.542;2024-02-14T10:38:11;5.07;;;1.70;;
73382;SDS011;61600;48.126;11.542;2024-02-14T10:40:37;0.98;;;0.60;;
73382;SDS011;61600;48.126;11.542;2024-02-14T10:43:05;4.68;;;0.80;;
73382;SDS011;61600;48.126;11.542;2024-02-14T10:45:36;2.00;;;0.65;;
73382;SDS011;61600;48.126;11.542;2024-02-14T10:48:05;2.13;;;0.70;;
73382;SDS011;61600;48.126;11.542;2024-02-14T10:50:34;1.58;;;0.52;;
73382;SDS011;61600;48.126;11.542;2024-02-14T10:53:03;0.98;;;0.30;;
73382;SDS011;61600;48.126;11.542;2024-02-14T10:55:32;1.83;;;0.55;;
73382;SDS011;61600;48.126;11.542;2024-02-14T10:57:59;1.85;;;0.60;;
73382;SDS011;61600;48.126;11.542;2024-02-14T11:00:25;1.33;;;0.50;;
73382;SDS011;61600;48.126;11.542;2024-02-14T11:02:51;1.70;;;0.60;;
73382;SDS011;61600;48.126;11.542;2024-02-14T11:05:19;1.23;;;0.43;;
73382;SDS011;61600;48.126;11.542;2024-02-14T11:07:49;0.50;;;0.50;;
73382;SDS011;61600;48.126;11.542;2024-02-14T11:10:18;2.03;;;0.63;;
73382;SDS011;61600;48.126;11.542;2024-02-14T11:12:46;1.45;;;0.60;;
73382;SDS011;61600;48.126;11.542;2024-02-14T11:15:20;2.78;;;0.88;;
73382;SDS011;61600;48.126;11.542;2024-02-14T11:17:47;1.63;;;0.40;;
73382;SDS011;61600;48.126;11.542;2024-02-14T11:22:49;1.35;;;0.50;;
73382;SDS011;61600;48.126;11.542;2024-02-14T11:25:22;2.75;;;0.70;;
73382;SDS011;61600;48.126;11.542;2024-02-14T11:27:49;1.85;;;0.50;;
73382;SDS011;61600;48.126;11.542;2024-02-14T11:30:26;4.45;;;0.90;;
73382;SDS011;61600;48.126;11.542;2024-02-14T11:32:52;1.95;;;0.45;;
73382;SDS011;61600;48.126;11.542;2024-02-14T11:35:18;1.20;;;0.60;;
73382;SDS011;61600;48.126;11.542;2024-02-14T11:37:44;1.23;;;0.52;;
73382;SDS011;61600;48.126;11.542;2024-02-14T11:40:19;1.42;;;0.38;;
73382;SDS011;61600;48.126;11.542;2024-02-14T11:42:46;1.23;;;0.55;;
73382;SDS011;61600;48.126;11.542;2024-02-14T11:47:38;1.73;;;0.70;;
73382;SDS011;61600;48.126;11.542;2024-02-14T11:50:05;1.10;;;0.40;;
73382;SDS011;61600;48.126;11.542;2024-02-14T11:52:31;2.33;;;0.60;;
73382;SDS011;61600;48.126;11.542;2024-02-14T11:54:57;2.35;;;0.65;;
73382;SDS011;61600;48.126;11.542;2024-02-14T11:57:25;4.10;;;0.40;;
73382;SDS011;61600;48.126;11.542;2024-02-14T11:59:52;1.38;;;0.38;;
73382;SDS011;61600;48.126;11.542;2024-02-14T12:02:19;0.88;;;0.43;;
73382;SDS011;61600;48.126;11.542;2024-02-14T12:04:46;0.90;;;0.52;;
73382;SDS011;61600;48.126;11.542;2024-02-14T12:07:14;1.58;;;0.40;;
73382;SDS011;61600;48.126;11.542;2024-02-14T12:09:40;1.63;;;0.50;;
73382;SDS011;61600;48.126;11.542;2024-02-14T12:12:09;1.55;;;0.52;;
73382;SDS011;61600;48.126;11.542;2024-02-14T12:14:38;1.98;;;0.60;;
73382;SDS011;61600;48.126;11.542;2024-02-14T12:17:03;2.08;;;0.50;;
73382;SDS011;61600;48.126;11.542;2024-02-14T12:19:32;2.55;;;0.80;;
73382;SDS011;61600;48.126;11.542;2024-02-14T12:22:00;2.20;;;0.52;;
73382;SDS011;61600;48.126;11.542;2024-02-14T12:24:32;2.13;;;0.60;;
73382;SDS011;61600;48.126;11.542;2024-02-14T12:26:59;2.10;;;0.60;;
73382;SDS011;61600;48.126;11.542;2024-02-14T12:29:26;1.77;;;0.50;;
73382;SDS011;61600;48.126;11.542;2024-02-14T12:32:02;2.47;;;0.60;;
73382;SDS011;61600;48.126;11.542;2024-02-14T12:34:29;2.92;;;0.65;;
73382;SDS011;61600;48.126;11.542;2024-02-14T12:36:55;1.83;;;0.47;;
73382;SDS011;61600;48.126;11.542;2024-02-14T12:39:21;1.35;;;0.60;;
73382;SDS011;61600;48.126;11.542;2024-02-14T12:41:46;4.03;;;0.60;;
73382;SDS011;61600;48.126;11.542;2024-02-14T12:44:12;3.08;;;0.65;;
73382;SDS011;61600;48.126;11.542;2024-02-14T12:46:37;1.83;;;0.52;;
73382;SDS011;61600;48.126;11.542;2024-02-14T12:49:03;2.13;;;1.10;;
73382;SDS011;61600;48.126;11.542;2024-02-14T12:51:29;1.50;;;0.60;;
73382;SDS011;61600;48.126;11.542;2024-02-14T12:53:55;2.78;;;0.50;;
73382;SDS011;61600;48.126;11.542;2024-02-14T12:56:21;0.98;;;0.40;;
73382;SDS011;61600;48.126;11.542;2024-02-14T12:58:46;1.33;;;0.60;;
73382;SDS011;61600;48.126;11.542;2024-02-14T13:01:13;0.70;;;0.50;;
73382;SDS011;61600;48.126;11.542;2024-02-14T13:03:40;1.17;;;0.63;;
73382;SDS011;61600;48.126;11.542;2024-02-14T13:06:05;2.67;;;0.50;;
73382;SDS011;61600;48.126;11.542;2024-02-14T13:08:36;2.03;;;0.63;;
73382;SDS011;61600;48.126;11.542;2024-02-14T13:11:04;1.10;;;0.60;;
73382;SDS011;61600;48.126;11.542;2024-02-14T13:13:34;1.42;;;0.50;;
73382;SDS011;61600;48.126;11.542;2024-02-14T13:16:00;0.88;;;0.50;;
73382;SDS011;61600;48.126;11.542;2024-02-14T13:18:26;0.90;;;0.60;;
73382;SDS011;61600;48.126;11.542;2024-02-14T13:21:00;0.93;;;0.43;;
73382;SDS011;61600;48.126;11.542;2024-02-14T13:23:26;0.88;;;0.38;;
73382;SDS011;61600;48.126;11.542;2024-02-14T13:25:52;1.08;;;0.40;;
73382;SDS011;61600;48.126;11.542;2024-02-14T13:28:17;2.22;;;0.70;;
73382;SDS011;61600;48.126;11.542;2024-02-14T13:30:43;1.27;;;0.50;;
73382;SDS011;61600;48.126;11.542;2024-02-14T13:33:09;1.77;;;0.50;;
73382;SDS011;61600;48.126;11.542;2024-02-14T13:38:04;1.20;;;0.57;;
73382;SDS011;61600;48.126;11.542;2024-02-14T13:40:31;0.80;;;0.30;;
73382;SDS011;61600;48.126;11.542;2024-02-14T13:42:57;1.92;;;0.60;;
73382;SDS011;61600;48.126;11.542;2024-02-14T13:45:23;1.30;;;0.30;;
73382;SDS011;61600;48.126;11.542;2024-02-14T13:47:49;1.65;;;0.60;;
73382;SDS011;61600;48.126;11.542;2024-02-14T13:50:16;0.95;;;0.50;;
73382;SDS011;61600;48.126;11.542;2024-02-14T13:52:41;0.95;;;0.43;;
73382;SDS011;61600;48.126;11.542;2024-02-14T13:55:07;8.38;;;0.68;;
73382;SDS011;61600;48.126;11.542;2024-02-14T13:57:36;4.40;;;0.80;;
73382;SDS011;61600;48.126;11.542;2024-02-14T14:00:07;1.58;;;0.52;;
73382;SDS011;61600;48.126;11.542;2024-02-14T14:02:37;1.00;;;0.57;;
73382;SDS011;61600;48.126;11.542;2024-02-14T14:05:07;1.50;;;0.60;;
73382;SDS011;61600;48.126;11.542;2024-02-14T14:07:38;3.25;;;0.52;;
73382;SDS011;61600;48.126;11.542;2024-02-14T14:10:07;3.05;;;0.80;;
73382;SDS011;61600;48.126;11.542;2024-02-14T14:12:35;1.98;;;0.88;;
73382;SDS011;61600;48.126;11.542;2024-02-14T14:15:02;1.27;;;0.40;;
73382;SDS011;61600;48.126;11.542;2024-02-14T14:17:28;2.00;;;0.50;;
73382;SDS011;61600;48.126;11.542;2024-02-14T14:19:54;2.15;;;0.60;;
73382;SDS011;61600;48.126;11.542;2024-02-14T14:22:20;2.42;;;0.70;;
73382;SDS011;61600;48.126;11.542;2024-02-14T14:24:46;5.90;;;1.23;;
73382;SDS011;61600;48.126;11.542;2024-02-14T14:27:12;4.13;;;0.73;;
73382;SDS011;61600;48.126;11.542;2024-02-14T14:29:41;0.68;;;0.40;;
73382;SDS011;61600;48.126;11.542;2024-02-14T14:32:07;1.52;;;0.52;;
73382;SDS011;61600;48.126;11.542;2024-02-14T14:34:33;1.17;;;0.60;;
73382;SDS011;61600;48.126;11.542;2024-02-14T14:36:59;1.88;;;0.50;;
73382;SDS011;61600;48.126;11.542;2024-02-14T14:39:25;0.88;;;0.50;;
73382;SDS011;61600;48.126;11.542;2024-02-14T14:41:51;1.38;;;0.50;;
73382;SDS011;61600;48.126;11.542;2024-02-14T14:44:18;1.48;;;0.50;;
73382;SDS011;61600;48.126;11.542;2024-02-14T14:46:44;0.98;;;0.50;;
73382;SDS011;61600;48.126;11.542;2024-02-14T14:49:10;1.42;;;0.60;;
73382;SDS011;61600;48.126;11.542;2024-02-14T14:51:36;2.38;;;0.60;;
73382;SDS011;61600;48.126;11.542;2024-02-14T14:54:03;2.58;;;0.40;;